カイロ の空港の天気 - METARとTAF

カイロ国際空港 ( HECA / CAI ) - エジプト [カイロ
飛行場実況気象(Metar)
観測時間12/10 07:00 EET (12/10 05:00 UTC)
風向・風速南 5m/s
視程3000m
天気現象煙霧
なし
気温14℃
湿度63%
気圧1020hPa
METARHECA 100500Z 18009KT 3000 HZ NSC 14/07 Q1020 NOSIG
過去の天気等 Google飛行場航空写真 Wunderground天気予報

過去48時間のMETAR

飛行場予報(TAF)
発表時間: 12/10 07:00 EET (12/10 05:00 UTC)
予報対象時間: 10日8時 EET ~ 11日14時 EET
風向・風速南南西 5m/s
視程6000m
なし
10日8時 EET ~ 10日11時 EET に一時的に
視程3000m
天気現象煙霧
11日2時 EET ~ 11日8時 EET に一時的に
視程3000m
天気現象煙霧
TAF HECA 100500Z 1006/1112 20009KT 6000 NSC
TEMPO 1006/1009 3000 HZ
TEMPO 1100/1106 3000 HZ